sensor_id;sensor_type;location;lat;lon;timestamp;pressure;altitude;pressure_sealevel;temperature;humidity
21129;BME280;10722;51.910;8.352;2023-04-23T00:02:32;100040.53;;;12.16;100.00
21129;BME280;10722;51.910;8.352;2023-04-23T00:05:18;100047.44;;;12.01;100.00
21129;BME280;10722;51.910;8.352;2023-04-23T00:08:04;100033.63;;;12.07;100.00
21129;BME280;10722;51.910;8.352;2023-04-23T00:10:50;100027.59;;;12.08;100.00
21129;BME280;10722;51.910;8.352;2023-04-23T00:13:36;100019.75;;;11.82;100.00
21129;BME280;10722;51.910;8.352;2023-04-23T00:16:21;100027.53;;;11.83;100.00
21129;BME280;10722;51.910;8.352;2023-04-23T00:19:07;100018.94;;;11.95;100.00
21129;BME280;10722;51.910;8.352;2023-04-23T00:21:52;100016.34;;;11.86;100.00
21129;BME280;10722;51.910;8.352;2023-04-23T00:24:37;100020.63;;;11.75;100.00
21129;BME280;10722;51.910;8.352;2023-04-23T00:27:22;100019.72;;;11.63;100.00
21129;BME280;10722;51.910;8.352;2023-04-23T00:30:08;100025.78;;;11.78;100.00
21129;BME280;10722;51.910;8.352;2023-04-23T00:32:53;100019.72;;;11.66;100.00
21129;BME280;10722;51.910;8.352;2023-04-23T00:35:38;100012.81;;;11.52;100.00
21129;BME280;10722;51.910;8.352;2023-04-23T00:38:23;100018.78;;;11.37;100.00
21129;BME280;10722;51.910;8.352;2023-04-23T00:41:09;100023.97;;;11.43;100.00
21129;BME280;10722;51.910;8.352;2023-04-23T00:43:54;100024.78;;;11.19;100.00
21129;BME280;10722;51.910;8.352;2023-04-23T00:46:41;100030.00;;;11.30;100.00
21129;BME280;10722;51.910;8.352;2023-04-23T00:49:27;100029.97;;;11.28;100.00
21129;BME280;10722;51.910;8.352;2023-04-23T00:52:12;100031.69;;;11.26;100.00
21129;BME280;10722;51.910;8.352;2023-04-23T00:54:57;100039.34;;;11.00;100.00
21129;BME280;10722;51.910;8.352;2023-04-23T00:57:43;100040.19;;;10.91;100.00
21129;BME280;10722;51.910;8.352;2023-04-23T01:00:28;100041.09;;;11.01;100.00
21129;BME280;10722;51.910;8.352;2023-04-23T01:03:14;100040.97;;;10.80;100.00
21129;BME280;10722;51.910;8.352;2023-04-23T01:06:00;100035.75;;;10.72;100.00
21129;BME280;10722;51.910;8.352;2023-04-23T01:08:46;100032.25;;;10.62;100.00
21129;BME280;10722;51.910;8.352;2023-04-23T01:11:31;100044.34;;;10.62;100.00
21129;BME280;10722;51.910;8.352;2023-04-23T01:14:17;100041.75;;;10.63;100.00
21129;BME280;10722;51.910;8.352;2023-04-23T01:17:03;100042.63;;;10.70;100.00
21129;BME280;10722;51.910;8.352;2023-04-23T01:19:49;100049.50;;;10.66;100.00
21129;BME280;10722;51.910;8.352;2023-04-23T01:22:37;100050.38;;;10.67;100.00
21129;BME280;10722;51.910;8.352;2023-04-23T01:25:23;100050.44;;;10.74;100.00
21129;BME280;10722;51.910;8.352;2023-04-23T01:28:08;100053.84;;;10.67;100.00
21129;BME280;10722;51.910;8.352;2023-04-23T01:30:55;100060.69;;;10.59;100.00
21129;BME280;10722;51.910;8.352;2023-04-23T01:33:41;100057.22;;;10.59;100.00
21129;BME280;10722;51.910;8.352;2023-04-23T01:36:27;100055.59;;;10.74;100.00
21129;BME280;10722;51.910;8.352;2023-04-23T01:39:12;100051.31;;;10.78;100.00
21129;BME280;10722;51.910;8.352;2023-04-23T01:41:58;100058.22;;;10.81;100.00
21129;BME280;10722;51.910;8.352;2023-04-23T01:44:43;100053.09;;;10.85;100.00
21129;BME280;10722;51.910;8.352;2023-04-23T01:47:29;100060.03;;;10.91;100.00
21129;BME280;10722;51.910;8.352;2023-04-23T01:50:15;100047.84;;;10.74;100.00
21129;BME280;10722;51.910;8.352;2023-04-23T01:52:59;100049.56;;;10.75;100.00
21129;BME280;10722;51.910;8.352;2023-04-23T01:55:45;100044.38;;;10.75;100.00
21129;BME280;10722;51.910;8.352;2023-04-23T01:58:30;100046.16;;;10.80;100.00
21129;BME280;10722;51.910;8.352;2023-04-23T02:01:16;100040.06;;;10.71;100.00
21129;BME280;10722;51.910;8.352;2023-04-23T02:04:01;100042.72;;;10.79;100.00
21129;BME280;10722;51.910;8.352;2023-04-23T02:06:49;100032.31;;;10.71;100.00
21129;BME280;10722;51.910;8.352;2023-04-23T02:09:34;100029.78;;;10.79;100.00
21129;BME280;10722;51.910;8.352;2023-04-23T02:12:20;100027.19;;;10.81;100.00
21129;BME280;10722;51.910;8.352;2023-04-23T02:15:07;100029.78;;;10.84;100.00
21129;BME280;10722;51.910;8.352;2023-04-23T02:17:52;100021.97;;;10.74;100.00
21129;BME280;10722;51.910;8.352;2023-04-23T02:20:37;100034.09;;;10.86;100.00
21129;BME280;10722;51.910;8.352;2023-04-23T02:23:22;100037.50;;;10.77;100.00
21129;BME280;10722;51.910;8.352;2023-04-23T02:26:07;100030.66;;;10.83;100.00
21129;BME280;10722;51.910;8.352;2023-04-23T02:28:52;100035.75;;;10.75;100.00
21129;BME280;10722;51.910;8.352;2023-04-23T02:31:37;100033.91;;;10.55;100.00
21129;BME280;10722;51.910;8.352;2023-04-23T02:34:23;100046.78;;;10.46;100.00
21129;BME280;10722;51.910;8.352;2023-04-23T02:37:08;100046.72;;;10.34;100.00
21129;BME280;10722;51.910;8.352;2023-04-23T02:39:53;100044.94;;;10.28;100.00
21129;BME280;10722;51.910;8.352;2023-04-23T02:42:38;100053.38;;;10.09;100.00
21129;BME280;10722;51.910;8.352;2023-04-23T02:45:27;100053.34;;;10.07;100.00
21129;BME280;10722;51.910;8.352;2023-04-23T02:48:12;100054.19;;;10.03;100.00
21129;BME280;10722;51.910;8.352;2023-04-23T02:50:58;100057.78;;;10.19;100.00
21129;BME280;10722;51.910;8.352;2023-04-23T02:53:43;100065.56;;;10.24;100.00
21129;BME280;10722;51.910;8.352;2023-04-23T02:56:28;100072.44;;;10.23;100.00
21129;BME280;10722;51.910;8.352;2023-04-23T02:59:14;100068.16;;;10.22;100.00
21129;BME280;10722;51.910;8.352;2023-04-23T03:01:59;100076.63;;;10.09;100.00
21129;BME280;10722;51.910;8.352;2023-04-23T03:04:45;100078.03;;;9.76;100.00
21129;BME280;10722;51.910;8.352;2023-04-23T03:07:30;100079.59;;;9.62;100.00
21129;BME280;10722;51.910;8.352;2023-04-23T03:10:16;100083.81;;;9.52;100.00
21129;BME280;10722;51.910;8.352;2023-04-23T03:13:01;100081.19;;;9.51;100.00
21129;BME280;10722;51.910;8.352;2023-04-23T03:15:47;100077.78;;;9.52;100.00
21129;BME280;10722;51.910;8.352;2023-04-23T03:18:32;100070.91;;;9.57;100.00
21129;BME280;10722;51.910;8.352;2023-04-23T03:21:18;100075.22;;;9.56;100.00
21129;BME280;10722;51.910;8.352;2023-04-23T03:24:03;100071.75;;;9.53;100.00
21129;BME280;10722;51.910;8.352;2023-04-23T03:26:49;100068.28;;;9.51;100.00
21129;BME280;10722;51.910;8.352;2023-04-23T03:29:34;100062.31;;;9.56;100.00
21129;BME280;10722;51.910;8.352;2023-04-23T03:32:19;100067.34;;;9.44;100.00
21129;BME280;10722;51.910;8.352;2023-04-23T03:35:05;100070.81;;;9.48;100.00
21129;BME280;10722;51.910;8.352;2023-04-23T03:37:50;100067.38;;;9.49;100.00
21129;BME280;10722;51.910;8.352;2023-04-23T03:40:35;100069.91;;;9.42;100.00
21129;BME280;10722;51.910;8.352;2023-04-23T03:43:20;100070.91;;;9.52;100.00
21129;BME280;10722;51.910;8.352;2023-04-23T03:46:06;100072.59;;;9.50;100.00
21129;BME280;10722;51.910;8.352;2023-04-23T03:48:51;100083.56;;;9.34;100.00
21129;BME280;10722;51.910;8.352;2023-04-23T03:51:36;100086.88;;;9.22;100.00
21129;BME280;10722;51.910;8.352;2023-04-23T03:54:21;100084.31;;;9.25;100.00
21129;BME280;10722;51.910;8.352;2023-04-23T03:57:07;100080.06;;;9.27;100.00
21129;BME280;10722;51.910;8.352;2023-04-23T03:59:52;100077.47;;;9.27;100.00
21129;BME280;10722;51.910;8.352;2023-04-23T04:02:38;100073.97;;;9.22;100.00
21129;BME280;10722;51.910;8.352;2023-04-23T04:05:24;100078.28;;;9.23;100.00
21129;BME280;10722;51.910;8.352;2023-04-23T04:08:10;100062.78;;;9.22;100.00
21129;BME280;10722;51.910;8.352;2023-04-23T04:10:55;100074.78;;;9.18;100.00
21129;BME280;10722;51.910;8.352;2023-04-23T04:13:40;100073.06;;;9.18;100.00
21129;BME280;10722;51.910;8.352;2023-04-23T04:16:26;100074.00;;;9.24;100.00
21129;BME280;10722;51.910;8.352;2023-04-23T04:19:11;100078.28;;;9.23;100.00
21129;BME280;10722;51.910;8.352;2023-04-23T04:21:57;100073.97;;;9.22;100.00
21129;BME280;10722;51.910;8.352;2023-04-23T04:24:42;100073.28;;;9.35;100.00
21129;BME280;10722;51.910;8.352;2023-04-23T04:27:28;100068.94;;;9.34;100.00
21129;BME280;10722;51.910;8.352;2023-04-23T04:30:13;100069.84;;;9.36;100.00
21129;BME280;10722;51.910;8.352;2023-04-23T04:32:58;100066.44;;;9.39;100.00
21129;BME280;10722;51.910;8.352;2023-04-23T04:35:44;100071.72;;;9.50;100.00
21129;BME280;10722;51.910;8.352;2023-04-23T04:38:29;100064.97;;;9.61;100.00
21129;BME280;10722;51.910;8.352;2023-04-23T04:41:14;100057.19;;;9.58;100.00
21129;BME280;10722;51.910;8.352;2023-04-23T04:43:59;100062.38;;;9.61;100.00
21129;BME280;10722;51.910;8.352;2023-04-23T04:46:45;100054.75;;;9.73;100.00
21129;BME280;10722;51.910;8.352;2023-04-23T04:49:30;100064.16;;;9.67;100.00
21129;BME280;10722;51.910;8.352;2023-04-23T04:52:16;100060.69;;;9.63;100.00
21129;BME280;10722;51.910;8.352;2023-04-23T04:55:00;100061.59;;;9.71;100.00
21129;BME280;10722;51.910;8.352;2023-04-23T04:57:46;100056.44;;;9.70;100.00
21129;BME280;10722;51.910;8.352;2023-04-23T05:00:31;100058.97;;;9.63;100.00
21129;BME280;10722;51.910;8.352;2023-04-23T05:03:17;100056.31;;;9.57;100.00
21129;BME280;10722;51.910;8.352;2023-04-23T05:06:03;100057.84;;;9.43;100.00
21129;BME280;10722;51.910;8.352;2023-04-23T05:08:48;100063.16;;;9.54;100.00
21129;BME280;10722;51.910;8.352;2023-04-23T05:11:33;100063.94;;;9.47;100.00
21129;BME280;10722;51.910;8.352;2023-04-23T05:14:18;100069.91;;;9.41;100.00
21129;BME280;10722;51.910;8.352;2023-04-23T05:17:04;100073.25;;;9.34;100.00
21129;BME280;10722;51.910;8.352;2023-04-23T05:19:49;100074.94;;;9.30;100.00
21129;BME280;10722;51.910;8.352;2023-04-23T05:22:34;100082.75;;;9.36;100.00
21129;BME280;10722;51.910;8.352;2023-04-23T05:25:19;100082.88;;;9.49;100.00
21129;BME280;10722;51.910;8.352;2023-04-23T05:28:04;100090.56;;;9.42;100.00
21129;BME280;10722;51.910;8.352;2023-04-23T05:30:50;100081.84;;;9.33;100.00
21129;BME280;10722;51.910;8.352;2023-04-23T05:33:37;100090.53;;;9.39;100.00
21129;BME280;10722;51.910;8.352;2023-04-23T05:36:34;100098.38;;;9.49;100.00
21129;BME280;10722;51.910;8.352;2023-04-23T05:39:20;100083.94;;;9.63;100.00
21129;BME280;10722;51.910;8.352;2023-04-23T05:42:05;100072.84;;;9.76;100.00
21129;BME280;10722;51.910;8.352;2023-04-23T05:44:51;100080.75;;;9.90;100.00
21129;BME280;10722;51.910;8.352;2023-04-23T05:47:36;100074.97;;;10.14;100.00
21129;BME280;10722;51.910;8.352;2023-04-23T05:50:22;100073.19;;;10.10;100.00
21129;BME280;10722;51.910;8.352;2023-04-23T05:53:07;100071.63;;;10.26;100.00
21129;BME280;10722;51.910;8.352;2023-04-23T05:55:52;100067.47;;;10.42;100.00
21129;BME280;10722;51.910;8.352;2023-04-23T05:58:38;100065.75;;;10.45;100.00
21129;BME280;10722;51.910;8.352;2023-04-23T06:01:23;100062.38;;;10.59;100.00
21129;BME280;10722;51.910;8.352;2023-04-23T06:04:09;100061.53;;;10.53;100.00
21129;BME280;10722;51.910;8.352;2023-04-23T06:06:55;100059.78;;;10.55;100.00
21129;BME280;10722;51.910;8.352;2023-04-23T06:09:40;100057.19;;;10.52;100.00
21129;BME280;10722;51.910;8.352;2023-04-23T06:12:25;100055.44;;;10.48;100.00
21129;BME280;10722;51.910;8.352;2023-04-23T06:15:10;100048.72;;;10.73;100.00
21129;BME280;10722;51.910;8.352;2023-04-23T06:17:55;100047.97;;;10.93;100.00
21129;BME280;10722;51.910;8.352;2023-04-23T06:20:40;100048.72;;;10.78;100.00
21129;BME280;10722;51.910;8.352;2023-04-23T06:23:29;100040.13;;;10.87;100.00
21129;BME280;10722;51.910;8.352;2023-04-23T06:26:15;100038.50;;;10.99;100.00
21129;BME280;10722;51.910;8.352;2023-04-23T06:29:00;100026.44;;;11.06;100.00
21129;BME280;10722;51.910;8.352;2023-04-23T06:31:45;100032.59;;;11.27;100.00
21129;BME280;10722;51.910;8.352;2023-04-23T06:34:30;100027.44;;;11.51;100.00
21129;BME280;10722;51.910;8.352;2023-04-23T06:37:15;100011.03;;;11.38;100.00
21129;BME280;10722;51.910;8.352;2023-04-23T06:40:00;100014.50;;;11.48;100.00
21129;BME280;10722;51.910;8.352;2023-04-23T06:42:45;99998.94;;;11.42;100.00
21129;BME280;10722;51.910;8.352;2023-04-23T06:45:31;100002.44;;;11.53;100.00
21129;BME280;10722;51.910;8.352;2023-04-23T06:48:16;99989.47;;;11.65;100.00
21129;BME280;10722;51.910;8.352;2023-04-23T06:51:01;99984.34;;;11.81;100.00
21129;BME280;10722;51.910;8.352;2023-04-23T06:53:46;99965.31;;;11.85;100.00
21129;BME280;10722;51.910;8.352;2023-04-23T06:56:32;99950.66;;;12.13;100.00
21129;BME280;10722;51.910;8.352;2023-04-23T06:59:17;99933.38;;;12.12;100.00
21129;BME280;10722;51.910;8.352;2023-04-23T07:02:03;99933.34;;;12.32;100.00
21129;BME280;10722;51.910;8.352;2023-04-23T07:04:48;99917.72;;;12.53;98.41
21129;BME280;10722;51.910;8.352;2023-04-23T07:07:33;99909.09;;;12.45;98.19
21129;BME280;10722;51.910;8.352;2023-04-23T07:10:18;99916.94;;;12.28;98.76
21129;BME280;10722;51.910;8.352;2023-04-23T07:13:03;99908.22;;;12.46;97.37
21129;BME280;10722;51.910;8.352;2023-04-23T07:15:49;99889.22;;;12.47;95.40
21129;BME280;10722;51.910;8.352;2023-04-23T07:18:34;99879.56;;;12.72;94.69
21129;BME280;10722;51.910;8.352;2023-04-23T07:21:19;99870.03;;;12.79;93.50
21129;BME280;10722;51.910;8.352;2023-04-23T07:24:05;99860.38;;;13.04;91.90
21129;BME280;10722;51.910;8.352;2023-04-23T07:26:51;99843.94;;;12.97;90.98
21129;BME280;10722;51.910;8.352;2023-04-23T07:29:36;99856.09;;;12.98;90.97
21129;BME280;10722;51.910;8.352;2023-04-23T07:32:22;99829.25;;;13.01;89.43
21129;BME280;10722;51.910;8.352;2023-04-23T07:35:08;99813.59;;;13.09;88.04
21129;BME280;10722;51.910;8.352;2023-04-23T07:37:53;99756.47;;;13.07;84.81
21129;BME280;10722;51.910;8.352;2023-04-23T07:40:38;99765.88;;;13.20;84.32
21129;BME280;10722;51.910;8.352;2023-04-23T07:43:24;99775.41;;;13.21;84.53
21129;BME280;10722;51.910;8.352;2023-04-23T07:46:09;99766.72;;;13.26;83.55
21129;BME280;10722;51.910;8.352;2023-04-23T07:48:54;99794.34;;;13.40;84.26
21129;BME280;10722;51.910;8.352;2023-04-23T07:51:40;99796.69;;;13.65;83.69
21129;BME280;10722;51.910;8.352;2023-04-23T07:54:25;99783.50;;;13.83;82.61
21129;BME280;10722;51.910;8.352;2023-04-23T07:57:11;99780.09;;;13.78;81.75
21129;BME280;10722;51.910;8.352;2023-04-23T07:59:56;99784.25;;;13.95;81.60
21129;BME280;10722;51.910;8.352;2023-04-23T08:02:42;99775.69;;;13.86;80.85
21129;BME280;10722;51.910;8.352;2023-04-23T08:05:27;99798.94;;;14.00;81.46
21129;BME280;10722;51.910;8.352;2023-04-23T08:08:13;99786.03;;;13.91;80.86
21129;BME280;10722;51.910;8.352;2023-04-23T08:10:58;99779.28;;;13.73;80.92
21129;BME280;10722;51.910;8.352;2023-04-23T08:13:42;99799.72;;;14.08;81.54
21129;BME280;10722;51.910;8.352;2023-04-23T08:16:28;99761.16;;;14.40;79.54
21129;BME280;10722;51.910;8.352;2023-04-23T08:19:15;99772.16;;;14.62;79.37
21129;BME280;10722;51.910;8.352;2023-04-23T08:22:00;99759.94;;;14.67;78.51
21129;BME280;10722;51.910;8.352;2023-04-23T08:24:46;99750.59;;;14.52;77.87
21129;BME280;10722;51.910;8.352;2023-04-23T08:27:31;99768.69;;;14.63;77.97
21129;BME280;10722;51.910;8.352;2023-04-23T08:30:17;99762.97;;;14.96;77.44
21129;BME280;10722;51.910;8.352;2023-04-23T08:33:01;99767.63;;;14.76;78.18
21129;BME280;10722;51.910;8.352;2023-04-23T08:35:47;99771.47;;;15.08;77.77
21129;BME280;10722;51.910;8.352;2023-04-23T08:38:32;99752.88;;;15.29;76.66
21129;BME280;10722;51.910;8.352;2023-04-23T08:41:21;99746.16;;;15.14;76.24
21129;BME280;10722;51.910;8.352;2023-04-23T08:44:20;99737.78;;;14.97;76.05
21129;BME280;10722;51.910;8.352;2023-04-23T08:47:06;99792.66;;;15.39;77.83
21129;BME280;10722;51.910;8.352;2023-04-23T08:49:57;99756.72;;;15.07;75.93
21129;BME280;10722;51.910;8.352;2023-04-23T08:52:52;99779.19;;;15.14;76.71
21129;BME280;10722;51.910;8.352;2023-04-23T08:55:38;99770.34;;;15.24;76.50
21129;BME280;10722;51.910;8.352;2023-04-23T08:58:24;99781.66;;;15.73;76.18
21129;BME280;10722;51.910;8.352;2023-04-23T09:01:09;99773.34;;;15.51;76.11
21129;BME280;10722;51.910;8.352;2023-04-23T09:03:55;99776.53;;;15.66;75.93
21129;BME280;10722;51.910;8.352;2023-04-23T09:06:42;99786.75;;;15.80;76.44
21129;BME280;10722;51.910;8.352;2023-04-23T09:09:28;99757.47;;;15.13;75.37
21129;BME280;10722;51.910;8.352;2023-04-23T09:12:13;99771.41;;;15.11;76.40
21129;BME280;10722;51.910;8.352;2023-04-23T09:14:59;99761.06;;;15.06;76.04
21129;BME280;10722;51.910;8.352;2023-04-23T09:17:45;99759.38;;;15.04;75.50
21129;BME280;10722;51.910;8.352;2023-04-23T09:20:31;99791.41;;;15.61;76.07
21129;BME280;10722;51.910;8.352;2023-04-23T09:23:20;99753.25;;;16.44;74.03
21129;BME280;10722;51.910;8.352;2023-04-23T09:26:06;99722.19;;;16.32;72.69
21129;BME280;10722;51.910;8.352;2023-04-23T09:28:51;99725.19;;;16.93;72.11
21129;BME280;10722;51.910;8.352;2023-04-23T09:31:36;99705.84;;;15.83;72.57
21129;BME280;10722;51.910;8.352;2023-04-23T09:34:23;99762.31;;;16.28;74.85
21129;BME280;10722;51.910;8.352;2023-04-23T09:37:09;99725.13;;;16.57;73.10
21129;BME280;10722;51.910;8.352;2023-04-23T09:39:57;99716.63;;;16.08;73.14
21129;BME280;10722;51.910;8.352;2023-04-23T09:42:50;99761.13;;;16.01;74.26
21129;BME280;10722;51.910;8.352;2023-04-23T09:45:35;99776.84;;;15.48;75.87
21129;BME280;10722;51.910;8.352;2023-04-23T09:48:21;99784.59;;;15.54;76.43
21129;BME280;10722;51.910;8.352;2023-04-23T09:51:06;99791.31;;;15.69;76.74
21129;BME280;10722;51.910;8.352;2023-04-23T09:53:51;99787.63;;;15.79;76.63
21129;BME280;10722;51.910;8.352;2023-04-23T09:56:35;99745.63;;;16.35;73.91
21129;BME280;10722;51.910;8.352;2023-04-23T09:59:22;99717.13;;;16.65;71.42
21129;BME280;10722;51.910;8.352;2023-04-23T10:02:27;99710.59;;;16.45;71.35
21129;BME280;10722;51.910;8.352;2023-04-23T10:05:16;99729.03;;;16.39;72.20
21129;BME280;10722;51.910;8.352;2023-04-23T10:08:11;99720.09;;;16.09;72.26
21129;BME280;10722;51.910;8.352;2023-04-23T10:10:56;99737.94;;;16.68;71.79
21129;BME280;10722;51.910;8.352;2023-04-23T10:14:01;99731.19;;;17.31;70.74
21129;BME280;10722;51.910;8.352;2023-04-23T10:16:50;99682.19;;;17.39;68.46
21129;BME280;10722;51.910;8.352;2023-04-23T10:19:36;99652.19;;;16.87;67.59
21129;BME280;10722;51.910;8.352;2023-04-23T10:22:24;99696.56;;;17.22;69.03
21129;BME280;10722;51.910;8.352;2023-04-23T10:25:11;99694.69;;;16.93;68.86
21129;BME280;10722;51.910;8.352;2023-04-23T10:27:57;99690.56;;;16.47;69.13
21129;BME280;10722;51.910;8.352;2023-04-23T10:30:44;99711.47;;;16.83;69.25
21129;BME280;10722;51.910;8.352;2023-04-23T10:33:30;99712.22;;;17.22;69.41
21129;BME280;10722;51.910;8.352;2023-04-23T10:36:26;99672.19;;;17.22;67.79
21129;BME280;10722;51.910;8.352;2023-04-23T10:39:12;99678.03;;;16.97;68.26
21129;BME280;10722;51.910;8.352;2023-04-23T10:42:00;99663.34;;;16.19;67.73
21129;BME280;10722;51.910;8.352;2023-04-23T10:44:46;99670.44;;;16.13;68.20
21129;BME280;10722;51.910;8.352;2023-04-23T10:47:47;99693.22;;;16.05;68.75
21129;BME280;10722;51.910;8.352;2023-04-23T10:50:34;99709.75;;;16.04;69.85
21129;BME280;10722;51.910;8.352;2023-04-23T10:53:22;99750.44;;;16.13;71.16
21129;BME280;10722;51.910;8.352;2023-04-23T10:56:08;99740.75;;;16.18;71.49
21129;BME280;10722;51.910;8.352;2023-04-23T10:58:53;99747.53;;;16.27;71.77
21129;BME280;10722;51.910;8.352;2023-04-23T11:01:38;99731.50;;;16.45;71.53
21129;BME280;10722;51.910;8.352;2023-04-23T11:04:28;99739.38;;;16.42;71.37
21129;BME280;10722;51.910;8.352;2023-04-23T11:07:17;99720.97;;;16.48;70.86
21129;BME280;10722;51.910;8.352;2023-04-23T11:10:13;99716.22;;;16.66;71.19
21129;BME280;10722;51.910;8.352;2023-04-23T11:13:22;99709.84;;;16.79;70.61
21129;BME280;10722;51.910;8.352;2023-04-23T11:19:02;99682.06;;;17.11;68.21
21129;BME280;10722;51.910;8.352;2023-04-23T11:24:43;99676.81;;;16.76;68.09
21129;BME280;10722;51.910;8.352;2023-04-23T11:27:29;99678.53;;;16.39;69.34
21129;BME280;10722;51.910;8.352;2023-04-23T11:30:26;99692.88;;;16.59;70.04
21129;BME280;10722;51.910;8.352;2023-04-23T11:33:11;99679.56;;;16.69;69.33
21129;BME280;10722;51.910;8.352;2023-04-23T11:35:57;99670.72;;;16.76;68.61
21129;BME280;10722;51.910;8.352;2023-04-23T11:38:42;99645.47;;;16.75;67.73
21129;BME280;10722;51.910;8.352;2023-04-23T11:41:27;99639.25;;;16.82;67.29
21129;BME280;10722;51.910;8.352;2023-04-23T11:44:18;99630.03;;;16.67;66.94
21129;BME280;10722;51.910;8.352;2023-04-23T11:47:06;99642.19;;;16.67;67.82
21129;BME280;10722;51.910;8.352;2023-04-23T11:49:51;99684.94;;;16.64;70.13
21129;BME280;10722;51.910;8.352;2023-04-23T11:52:37;99709.44;;;16.58;71.79
21129;BME280;10722;51.910;8.352;2023-04-23T11:55:24;99720.91;;;16.51;72.63
21129;BME280;10722;51.910;8.352;2023-04-23T11:58:09;99706.81;;;16.58;71.54
21129;BME280;10722;51.910;8.352;2023-04-23T12:00:57;99705.22;;;16.51;72.16
21129;BME280;10722;51.910;8.352;2023-04-23T12:03:47;99707.25;;;16.77;71.43
21129;BME280;10722;51.910;8.352;2023-04-23T12:06:33;99678.25;;;16.90;70.10
21129;BME280;10722;51.910;8.352;2023-04-23T12:09:20;99650.00;;;17.04;69.13
21129;BME280;10722;51.910;8.352;2023-04-23T12:12:06;99655.09;;;17.09;69.02
21129;BME280;10722;51.910;8.352;2023-04-23T12:15:04;99657.50;;;17.18;69.53
21129;BME280;10722;51.910;8.352;2023-04-23T12:17:50;99617.91;;;16.99;67.74
21129;BME280;10722;51.910;8.352;2023-04-23T12:20:36;99626.13;;;17.18;68.23
21129;BME280;10722;51.910;8.352;2023-04-23T12:23:25;99612.53;;;17.05;67.98
21129;BME280;10722;51.910;8.352;2023-04-23T12:26:12;99613.06;;;17.18;68.00
21129;BME280;10722;51.910;8.352;2023-04-23T12:28:58;99605.56;;;17.66;66.86
21129;BME280;10722;51.910;8.352;2023-04-23T12:31:43;99586.84;;;17.51;66.30
21129;BME280;10722;51.910;8.352;2023-04-23T12:34:29;99579.16;;;16.82;67.06
21129;BME280;10722;51.910;8.352;2023-04-23T12:37:14;99618.28;;;17.18;67.98
21129;BME280;10722;51.910;8.352;2023-04-23T12:40:00;99601.06;;;17.72;66.94
21129;BME280;10722;51.910;8.352;2023-04-23T12:42:45;99574.25;;;17.95;64.94
21129;BME280;10722;51.910;8.352;2023-04-23T12:45:36;99546.22;;;17.39;65.05
21129;BME280;10722;51.910;8.352;2023-04-23T12:48:21;99565.25;;;17.44;65.31
21129;BME280;10722;51.910;8.352;2023-04-23T12:51:06;99557.34;;;17.45;65.36
21129;BME280;10722;51.910;8.352;2023-04-23T12:53:52;99561.91;;;17.40;65.72
21129;BME280;10722;51.910;8.352;2023-04-23T12:56:37;99555.09;;;17.35;65.24
21129;BME280;10722;51.910;8.352;2023-04-23T12:59:23;99536.69;;;17.38;64.41
21129;BME280;10722;51.910;8.352;2023-04-23T13:02:08;99513.72;;;17.47;63.54
21129;BME280;10722;51.910;8.352;2023-04-23T13:04:54;99522.22;;;17.85;63.40
21129;BME280;10722;51.910;8.352;2023-04-23T13:07:39;99486.22;;;17.92;61.31
21129;BME280;10722;51.910;8.352;2023-04-23T13:10:24;99500.31;;;17.60;62.51
21129;BME280;10722;51.910;8.352;2023-04-23T13:13:10;99485.78;;;17.20;62.20
21129;BME280;10722;51.910;8.352;2023-04-23T13:15:56;99463.88;;;16.94;61.96
21129;BME280;10722;51.910;8.352;2023-04-23T13:18:41;99493.50;;;17.54;62.58
21129;BME280;10722;51.910;8.352;2023-04-23T13:21:27;99468.56;;;17.99;60.98
21129;BME280;10722;51.910;8.352;2023-04-23T13:24:12;99453.69;;;17.44;61.84
21129;BME280;10722;51.910;8.352;2023-04-23T13:26:57;99467.72;;;17.70;61.46
21129;BME280;10722;51.910;8.352;2023-04-23T13:29:44;99445.41;;;17.30;62.03
21129;BME280;10722;51.910;8.352;2023-04-23T13:32:40;99457.63;;;17.30;62.34
21129;BME280;10722;51.910;8.352;2023-04-23T13:35:25;99453.63;;;17.18;62.45
21129;BME280;10722;51.910;8.352;2023-04-23T13:38:11;99454.06;;;17.02;62.39
21129;BME280;10722;51.910;8.352;2023-04-23T13:40:56;99454.88;;;17.05;62.69
21129;BME280;10722;51.910;8.352;2023-04-23T13:43:41;99449.38;;;17.14;62.40
21129;BME280;10722;51.910;8.352;2023-04-23T13:46:27;99447.03;;;17.34;62.41
21129;BME280;10722;51.910;8.352;2023-04-23T13:49:12;99423.13;;;17.46;61.18
21129;BME280;10722;51.910;8.352;2023-04-23T13:51:58;99436.75;;;17.56;62.14
21129;BME280;10722;51.910;8.352;2023-04-23T13:54:43;99410.59;;;17.30;61.17
21129;BME280;10722;51.910;8.352;2023-04-23T13:57:28;99415.69;;;17.05;60.93
21129;BME280;10722;51.910;8.352;2023-04-23T14:00:13;99491.06;;;15.45;65.64
21129;BME280;10722;51.910;8.352;2023-04-23T14:02:59;99586.78;;;14.41;72.64
21129;BME280;10722;51.910;8.352;2023-04-23T14:05:45;99667.94;;;14.07;78.80
21129;BME280;10722;51.910;8.352;2023-04-23T14:08:30;99721.56;;;14.18;85.05
21129;BME280;10722;51.910;8.352;2023-04-23T14:11:15;99752.72;;;13.42;88.87
21129;BME280;10722;51.910;8.352;2023-04-23T14:14:01;99753.56;;;13.45;92.51
21129;BME280;10722;51.910;8.352;2023-04-23T14:16:46;99742.22;;;13.57;95.82
21129;BME280;10722;51.910;8.352;2023-04-23T14:19:31;99703.84;;;13.78;97.55
21129;BME280;10722;51.910;8.352;2023-04-23T14:22:40;99703.13;;;14.34;100.00
21129;BME280;10722;51.910;8.352;2023-04-23T14:25:33;99687.13;;;14.62;98.76
21129;BME280;10722;51.910;8.352;2023-04-23T14:31:11;99634.56;;;15.83;94.33
21129;BME280;10722;51.910;8.352;2023-04-23T14:33:56;99645.75;;;16.27;95.07
21129;BME280;10722;51.910;8.352;2023-04-23T14:36:42;99641.41;;;16.63;94.26
21129;BME280;10722;51.910;8.352;2023-04-23T14:39:27;99622.56;;;16.88;91.99
21129;BME280;10722;51.910;8.352;2023-04-23T14:42:12;99610.53;;;17.15;91.70